createdAt,value
2019-03-24T00:00:02.334Z,48.95
2019-03-24T00:02:30.841Z,44.60
2019-03-24T00:04:59.501Z,41.77
2019-03-24T00:07:27.913Z,36.63
2019-03-24T00:09:56.348Z,50.23
2019-03-24T00:12:24.761Z,44.77
2019-03-24T00:14:53.181Z,45.17
2019-03-24T00:17:21.599Z,43.83
2019-03-24T00:19:50.037Z,41.30
2019-03-24T00:22:18.446Z,45.90
2019-03-24T00:24:46.863Z,45.38
2019-03-24T00:27:15.363Z,47.25
2019-03-24T00:29:43.788Z,47.65
2019-03-24T00:32:13.853Z,44.23
2019-03-24T00:34:42.311Z,44.85
2019-03-24T00:37:10.717Z,38.38
2019-03-24T00:39:39.141Z,39.73
2019-03-24T00:42:07.665Z,43.42
2019-03-24T00:44:36.174Z,42.73
2019-03-24T00:47:04.669Z,41.88
2019-03-24T00:49:33.109Z,44.40
2019-03-24T00:52:01.544Z,43.95
2019-03-24T00:54:29.994Z,43.98
2019-03-24T00:57:01.119Z,41.35
2019-03-24T00:59:29.542Z,44.03
2019-03-24T01:01:57.978Z,40.52
2019-03-24T01:04:26.462Z,43.20
2019-03-24T01:06:55.367Z,42.88
2019-03-24T01:09:23.786Z,44.63
2019-03-24T01:11:52.207Z,42.88
2019-03-24T01:14:20.626Z,45.45
2019-03-24T01:16:49.036Z,43.10
2019-03-24T01:19:17.458Z,41.88
2019-03-24T01:21:45.929Z,37.10
2019-03-24T01:24:14.378Z,43.38
2019-03-24T01:26:42.789Z,43.70
2019-03-24T01:29:11.243Z,42.40
2019-03-24T01:31:39.718Z,42.67
2019-03-24T01:34:08.165Z,37.42
2019-03-24T01:36:36.585Z,45.43
2019-03-24T01:39:06.950Z,39.85
2019-03-24T01:41:35.714Z,44.38
2019-03-24T01:44:04.233Z,43.70
2019-03-24T01:46:32.655Z,40.80
2019-03-24T01:49:01.098Z,41.25
2019-03-24T01:51:29.559Z,44.27
2019-03-24T01:53:58.143Z,44.83
2019-03-24T01:56:26.899Z,41.20
2019-03-24T01:58:55.470Z,45.65
2019-03-24T02:01:24.199Z,36.48
2019-03-24T02:03:52.589Z,43.75
2019-03-24T02:06:21.063Z,39.27
2019-03-24T02:08:49.493Z,41.20
2019-03-24T02:11:17.898Z,39.85
2019-03-24T02:13:46.305Z,42.93
2019-03-24T02:16:14.765Z,43.17
2019-03-24T02:18:43.207Z,43.28
2019-03-24T02:21:11.641Z,41.55
2019-03-24T02:23:40.055Z,45.55
2019-03-24T02:26:08.483Z,39.80
2019-03-24T02:28:36.909Z,38.17
2019-03-24T02:31:05.406Z,36.93
2019-03-24T02:33:33.822Z,44.77
2019-03-24T02:36:02.230Z,39.38
2019-03-24T02:38:30.628Z,41.40
2019-03-24T02:40:59.063Z,43.08
2019-03-24T02:43:27.762Z,42.75
2019-03-24T02:45:56.236Z,43.25
2019-03-24T02:48:24.634Z,39.70
2019-03-24T02:50:53.041Z,43.55
2019-03-24T02:53:21.481Z,45.38
2019-03-24T02:55:49.975Z,39.70
2019-03-24T02:58:18.525Z,40.73
2019-03-24T03:00:46.938Z,33.35
2019-03-24T03:03:15.342Z,44.98
2019-03-24T03:05:43.802Z,42.08
2019-03-24T03:08:12.203Z,38.13
2019-03-24T03:10:40.624Z,42.53
2019-03-24T03:13:09.027Z,41.70
2019-03-24T03:15:37.454Z,38.58
2019-03-24T03:18:06.434Z,40.67
2019-03-24T03:20:34.911Z,37.30
2019-03-24T03:23:03.364Z,43.38
2019-03-24T03:25:31.825Z,41.48
2019-03-24T03:28:00.238Z,40.78
2019-03-24T03:30:28.681Z,42.60
2019-03-24T03:32:57.167Z,34.30
2019-03-24T03:35:25.613Z,43.78
2019-03-24T03:37:54.029Z,42.88
2019-03-24T03:40:22.430Z,44.90
2019-03-24T03:42:50.898Z,37.93
2019-03-24T03:45:27.289Z,43.95
2019-03-24T03:47:56.386Z,38.10
2019-03-24T03:50:24.792Z,45.25
2019-03-24T03:52:53.206Z,36.53
2019-03-24T03:55:21.627Z,40.23
2019-03-24T03:57:50.052Z,43.52
2019-03-24T04:00:21.645Z,37.58
2019-03-24T04:02:50.178Z,37.83
2019-03-24T04:05:18.624Z,38.55
2019-03-24T04:07:47.069Z,45.75
2019-03-24T04:10:15.501Z,37.30
2019-03-24T04:12:43.944Z,33.53
2019-03-24T04:15:12.418Z,32.98
2019-03-24T04:17:40.875Z,39.55
2019-03-24T04:20:09.472Z,40.58
2019-03-24T04:22:37.890Z,43.20
2019-03-24T04:25:07.049Z,40.48
2019-03-24T04:27:35.518Z,39.75
2019-03-24T04:30:04.962Z,43.30
2019-03-24T04:32:33.394Z,40.70
2019-03-24T04:35:01.851Z,38.25
2019-03-24T04:37:32.967Z,43.60
2019-03-24T04:40:00.454Z,42.55
2019-03-24T04:42:28.861Z,40.58
2019-03-24T04:44:57.291Z,41.55
2019-03-24T04:47:25.794Z,39.50
2019-03-24T04:49:54.234Z,43.35
2019-03-24T04:52:22.721Z,40.45
2019-03-24T04:54:51.137Z,35.80
2019-03-24T04:57:19.545Z,39.90
2019-03-24T04:59:47.957Z,42.13
2019-03-24T05:02:16.365Z,47.08
2019-03-24T05:04:45.116Z,41.92
2019-03-24T05:07:14.027Z,42.38
2019-03-24T05:09:43.064Z,37.80
2019-03-24T05:12:11.509Z,37.50
2019-03-24T05:14:39.962Z,42.75
2019-03-24T05:17:08.381Z,42.35
2019-03-24T05:19:36.842Z,37.73
2019-03-24T05:22:05.256Z,38.58
2019-03-24T05:24:33.664Z,41.63
2019-03-24T05:27:02.189Z,38.40
2019-03-24T05:29:30.954Z,44.70
2019-03-24T05:31:59.372Z,43.83
2019-03-24T05:34:27.795Z,42.53
2019-03-24T05:36:56.202Z,45.15
2019-03-24T05:39:24.623Z,45.05
2019-03-24T05:41:53.012Z,39.25
2019-03-24T05:44:21.833Z,42.10
2019-03-24T05:46:50.742Z,31.62
2019-03-24T05:49:19.162Z,39.67
2019-03-24T05:51:47.549Z,38.28
2019-03-24T05:54:16.294Z,42.98
2019-03-24T05:56:44.681Z,38.75
2019-03-24T05:59:13.189Z,41.23
2019-03-24T06:01:41.602Z,36.75
2019-03-24T06:04:10.097Z,35.63
2019-03-24T06:06:38.503Z,35.43
2019-03-24T06:09:06.913Z,37.73
2019-03-24T06:11:35.342Z,43.78
2019-03-24T06:14:03.790Z,41.45
2019-03-24T06:16:32.242Z,40.70
2019-03-24T06:19:00.668Z,45.95
2019-03-24T06:21:29.071Z,39.38
2019-03-24T06:23:57.488Z,41.60
2019-03-24T06:26:25.905Z,43.78
2019-03-24T06:28:54.328Z,43.55
2019-03-24T06:31:22.723Z,43.20
2019-03-24T06:33:51.169Z,42.45
2019-03-24T06:36:19.588Z,36.73
2019-03-24T06:38:48.002Z,39.83
2019-03-24T06:41:16.471Z,37.90
2019-03-24T06:43:44.938Z,37.88
2019-03-24T06:46:15.040Z,39.78
2019-03-24T06:48:43.554Z,40.85
2019-03-24T06:51:12.285Z,41.55
2019-03-24T06:53:40.697Z,40.20
2019-03-24T06:56:09.120Z,43.05
2019-03-24T06:58:37.537Z,48.08
2019-03-24T07:01:06.343Z,43.15
2019-03-24T07:03:34.747Z,39.63
2019-03-24T07:06:03.202Z,38.67
2019-03-24T07:08:32.390Z,41.18
2019-03-24T07:11:00.820Z,39.65
2019-03-24T07:13:29.245Z,47.45
2019-03-24T07:15:57.662Z,43.17
2019-03-24T07:18:26.094Z,43.97
2019-03-24T07:20:54.532Z,36.53
2019-03-24T07:23:22.971Z,47.53
2019-03-24T07:25:51.633Z,38.87
2019-03-24T07:28:20.069Z,48.53
2019-03-24T07:30:48.485Z,48.10
2019-03-24T07:33:17.804Z,47.33
2019-03-24T07:35:46.299Z,45.07
2019-03-24T07:38:14.717Z,43.53
2019-03-24T07:40:43.153Z,45.60
2019-03-24T07:43:11.564Z,44.47
2019-03-24T07:45:39.989Z,48.73
2019-03-24T07:48:18.447Z,49.40
2019-03-24T07:50:38.589Z,45.80
2019-03-24T07:53:07.042Z,45.33
2019-03-24T07:55:35.456Z,46.67
2019-03-24T07:58:03.938Z,44.50
2019-03-24T08:00:36.955Z,42.47
2019-03-24T08:03:05.832Z,45.57
2019-03-24T08:05:34.269Z,41.33
2019-03-24T08:08:02.723Z,63.60
2019-03-24T08:10:31.164Z,42.13
2019-03-24T08:12:59.602Z,50.50
2019-03-24T08:15:28.040Z,47.90
2019-03-24T08:17:56.451Z,46.90
2019-03-24T08:20:24.885Z,46.67
2019-03-24T08:22:53.661Z,46.00
2019-03-24T08:25:22.115Z,47.17
2019-03-24T08:27:50.614Z,46.03
2019-03-24T08:30:30.955Z,45.03
2019-03-24T08:32:59.417Z,44.63
2019-03-24T08:35:27.833Z,44.93
2019-03-24T08:37:56.289Z,46.30
2019-03-24T08:40:24.737Z,45.20
2019-03-24T08:42:53.218Z,46.60
2019-03-24T08:45:29.627Z,47.47
2019-03-24T08:47:58.902Z,47.10
2019-03-24T08:50:27.466Z,44.00
2019-03-24T08:52:56.069Z,47.47
2019-03-24T08:55:24.566Z,49.73
2019-03-24T08:57:53.014Z,47.77
2019-03-24T09:00:30.102Z,48.00
2019-03-24T09:02:51.601Z,46.33
2019-03-24T09:05:20.030Z,42.13
2019-03-24T09:07:48.475Z,51.67
2019-03-24T09:10:17.121Z,51.20
2019-03-24T09:12:45.572Z,50.07
2019-03-24T09:15:14.341Z,48.13
2019-03-24T09:17:42.813Z,44.40
2019-03-24T09:20:11.603Z,46.87
2019-03-24T09:22:40.038Z,43.37
2019-03-24T09:25:09.026Z,49.03
2019-03-24T09:27:37.465Z,72.60
2019-03-24T09:30:08.369Z,194.40
2019-03-24T09:32:36.807Z,44.23
2019-03-24T09:35:06.185Z,84.63
2019-03-24T09:37:34.618Z,61.33
2019-03-24T09:40:03.120Z,71.40
2019-03-24T09:42:31.544Z,85.03
2019-03-24T09:44:59.965Z,100.30
2019-03-24T09:47:28.431Z,80.60
2019-03-24T09:49:56.852Z,95.27
2019-03-24T09:52:25.282Z,96.87
2019-03-24T09:54:53.725Z,76.90
2019-03-24T09:57:22.159Z,106.80
2019-03-24T09:59:50.590Z,69.70
2019-03-24T10:02:19.079Z,50.97
2019-03-24T10:04:48.662Z,47.37
2019-03-24T10:07:17.113Z,48.27
2019-03-24T10:09:45.553Z,50.60
2019-03-24T10:12:13.986Z,51.03
2019-03-24T10:14:42.895Z,50.37
2019-03-24T10:17:11.318Z,46.77
2019-03-24T10:19:40.039Z,48.73
2019-03-24T10:22:08.519Z,49.90
2019-03-24T10:24:36.965Z,50.00
2019-03-24T10:27:05.433Z,50.50
2019-03-24T10:29:33.904Z,52.43
2019-03-24T10:32:02.314Z,46.20
2019-03-24T10:34:30.746Z,47.97
2019-03-24T10:36:59.145Z,50.33
2019-03-24T10:39:27.610Z,52.00
2019-03-24T10:41:56.038Z,46.17
2019-03-24T10:44:24.485Z,44.60
2019-03-24T10:46:52.894Z,48.00
2019-03-24T10:49:25.183Z,47.27
2019-03-24T10:51:51.927Z,46.77
2019-03-24T10:54:20.358Z,47.90
2019-03-24T10:56:48.783Z,45.53
2019-03-24T10:59:17.216Z,46.57
2019-03-24T11:01:45.682Z,50.33
2019-03-24T11:04:15.896Z,47.93
2019-03-24T11:06:44.326Z,48.27
2019-03-24T11:09:12.762Z,43.47
2019-03-24T11:11:41.184Z,48.00
2019-03-24T11:14:09.660Z,41.53
2019-03-24T11:16:38.317Z,45.97
2019-03-24T11:19:06.738Z,47.10
2019-03-24T11:21:35.165Z,46.97
2019-03-24T11:24:03.613Z,46.17
2019-03-24T11:26:32.032Z,51.57
2019-03-24T11:29:00.454Z,46.67
2019-03-24T11:31:28.892Z,50.60
2019-03-24T11:33:57.313Z,49.27
2019-03-24T11:36:25.770Z,50.67
2019-03-24T11:38:54.251Z,45.53
2019-03-24T11:41:22.675Z,44.10
2019-03-24T11:43:54.617Z,50.00
2019-03-24T11:46:23.026Z,48.63
2019-03-24T11:48:51.763Z,50.90
2019-03-24T11:51:20.234Z,45.00
2019-03-24T11:53:48.703Z,47.50
2019-03-24T11:56:17.109Z,48.33
2019-03-24T11:58:45.622Z,50.67
2019-03-24T12:01:14.186Z,47.50
2019-03-24T12:03:42.962Z,50.47
2019-03-24T12:06:14.730Z,50.53
2019-03-24T12:08:41.626Z,48.13
2019-03-24T12:11:10.055Z,49.23
2019-03-24T12:13:38.497Z,42.10
2019-03-24T12:16:06.915Z,52.97
2019-03-24T12:18:35.353Z,47.83
2019-03-24T12:21:03.882Z,43.37
2019-03-24T12:23:32.440Z,44.80
2019-03-24T12:26:01.137Z,42.40
2019-03-24T12:28:29.596Z,45.37
2019-03-24T12:30:58.052Z,47.20
2019-03-24T12:33:27.189Z,44.27
2019-03-24T12:35:55.631Z,46.73
2019-03-24T12:38:24.066Z,42.00
2019-03-24T12:40:52.493Z,44.57
2019-03-24T12:43:21.013Z,43.83
2019-03-24T12:45:49.474Z,37.60
2019-03-24T12:48:17.941Z,40.53
2019-03-24T12:50:46.410Z,41.43
2019-03-24T12:53:14.883Z,37.53
2019-03-24T12:55:43.392Z,37.40
2019-03-24T12:58:11.801Z,39.97
2019-03-24T13:00:40.265Z,36.37
2019-03-24T13:03:09.228Z,36.30
2019-03-24T13:05:37.796Z,37.83
2019-03-24T13:08:14.500Z,36.73
2019-03-24T13:10:43.771Z,39.57
2019-03-24T13:13:12.560Z,38.97
2019-03-24T13:15:41.372Z,42.53
2019-03-24T13:18:09.776Z,32.40
2019-03-24T13:20:38.817Z,37.90
2019-03-24T13:23:07.529Z,37.03
2019-03-24T13:25:36.443Z,41.63
2019-03-24T13:28:05.029Z,41.63
2019-03-24T13:30:33.490Z,40.77
2019-03-24T13:33:02.077Z,37.43
2019-03-24T13:35:30.526Z,36.67
2019-03-24T13:37:58.941Z,34.27
2019-03-24T13:40:27.384Z,38.07
2019-03-24T13:42:55.819Z,41.87
2019-03-24T13:45:24.265Z,34.00
2019-03-24T13:47:52.695Z,34.83
2019-03-24T13:50:30.990Z,35.70
2019-03-24T13:52:51.285Z,37.07
2019-03-24T13:55:19.776Z,36.00
2019-03-24T13:57:48.202Z,36.20
2019-03-24T14:00:17.864Z,39.20
2019-03-24T14:02:46.275Z,34.83
2019-03-24T14:05:14.749Z,35.20
2019-03-24T14:07:43.209Z,37.23
2019-03-24T14:10:12.604Z,31.70
2019-03-24T14:12:42.013Z,37.17
2019-03-24T14:15:10.701Z,37.70
2019-03-24T14:17:39.179Z,36.97
2019-03-24T14:20:08.654Z,37.23
2019-03-24T14:22:37.081Z,31.27
2019-03-24T14:25:08.517Z,33.03
2019-03-24T14:27:37.012Z,35.37
2019-03-24T14:30:07.967Z,36.97
2019-03-24T14:32:36.385Z,38.23
2019-03-24T14:35:06.236Z,36.80
2019-03-24T14:37:34.686Z,41.53
2019-03-24T14:40:04.420Z,33.53
2019-03-24T14:42:32.845Z,39.57
2019-03-24T14:45:01.299Z,36.10
2019-03-24T14:47:29.719Z,38.80
2019-03-24T14:49:58.142Z,36.80
2019-03-24T14:52:26.626Z,36.63
2019-03-24T14:54:55.029Z,37.57
2019-03-24T14:57:23.555Z,29.43
2019-03-24T14:59:52.246Z,29.43
2019-03-24T15:02:20.685Z,35.93
2019-03-24T15:04:49.122Z,35.83
2019-03-24T15:07:17.586Z,38.07
2019-03-24T15:09:46.103Z,36.27
2019-03-24T15:12:14.566Z,38.63
2019-03-24T15:14:42.973Z,34.57
2019-03-24T15:17:11.438Z,37.00
2019-03-24T15:19:39.853Z,38.03
2019-03-24T15:22:08.330Z,34.00
2019-03-24T15:24:36.798Z,37.27
2019-03-24T15:27:05.450Z,33.87
2019-03-24T15:29:33.865Z,40.93
2019-03-24T15:32:02.404Z,31.63
2019-03-24T15:34:31.147Z,35.50
2019-03-24T15:36:59.573Z,38.93
2019-03-24T15:39:28.059Z,41.40
2019-03-24T15:41:56.514Z,39.57
2019-03-24T15:44:25.054Z,40.17
2019-03-24T15:47:12.821Z,44.37
2019-03-24T15:49:41.284Z,41.40
2019-03-24T15:52:10.051Z,37.80
2019-03-24T15:54:38.489Z,48.53
2019-03-24T15:57:06.909Z,45.83
2019-03-24T15:59:35.327Z,52.20
2019-03-24T16:02:03.817Z,48.63
2019-03-24T16:04:32.289Z,46.07
2019-03-24T16:07:00.697Z,56.10
2019-03-24T16:09:29.258Z,51.93
2019-03-24T16:11:57.684Z,50.20
2019-03-24T16:14:26.125Z,54.00
2019-03-24T16:16:54.535Z,50.87
2019-03-24T16:19:22.969Z,53.03
2019-03-24T16:21:51.389Z,49.13
2019-03-24T16:24:19.834Z,49.73
2019-03-24T16:26:48.252Z,50.17
2019-03-24T16:29:16.681Z,50.30
2019-03-24T16:31:45.109Z,63.83
2019-03-24T16:34:13.600Z,55.17
2019-03-24T16:36:42.031Z,52.60
2019-03-24T16:39:10.559Z,49.60
2019-03-24T16:41:39.017Z,48.20
2019-03-24T16:44:07.522Z,52.67
2019-03-24T16:46:36.005Z,54.80
2019-03-24T16:49:04.540Z,53.07
2019-03-24T16:51:38.467Z,57.57
2019-03-24T16:54:03.208Z,59.23
2019-03-24T16:56:31.671Z,69.20
2019-03-24T16:59:00.088Z,55.40
2019-03-24T17:01:28.539Z,57.50
2019-03-24T17:03:56.974Z,69.77
2019-03-24T17:06:25.384Z,71.50
2019-03-24T17:08:53.825Z,61.23
2019-03-24T17:11:22.238Z,58.33
2019-03-24T17:13:50.737Z,60.57
2019-03-24T17:16:19.218Z,62.33
2019-03-24T17:18:47.686Z,67.97
2019-03-24T17:21:16.175Z,59.70
2019-03-24T17:23:44.637Z,62.13
2019-03-24T17:26:13.049Z,65.50
2019-03-24T17:28:41.783Z,64.60
2019-03-24T17:31:10.197Z,74.97
2019-03-24T17:33:38.646Z,63.83
2019-03-24T17:36:07.241Z,62.53
2019-03-24T17:38:35.665Z,63.30
2019-03-24T17:41:04.081Z,66.73
2019-03-24T17:43:32.501Z,64.50
2019-03-24T17:46:00.951Z,74.20
2019-03-24T17:48:29.361Z,68.43
2019-03-24T17:50:57.813Z,73.33
2019-03-24T17:53:26.218Z,71.00
2019-03-24T17:55:54.662Z,63.93
2019-03-24T17:58:23.088Z,70.50
2019-03-24T18:00:53.194Z,65.80
2019-03-24T18:03:21.624Z,63.67
2019-03-24T18:05:50.106Z,70.10
2019-03-24T18:08:18.604Z,73.23
2019-03-24T18:10:47.102Z,69.50
2019-03-24T18:13:15.518Z,66.57
2019-03-24T18:15:43.962Z,66.57
2019-03-24T18:18:12.379Z,66.00
2019-03-24T18:20:40.809Z,63.20
2019-03-24T18:23:09.245Z,66.03
2019-03-24T18:25:37.677Z,64.53
2019-03-24T18:28:06.181Z,56.57
2019-03-24T18:30:34.796Z,64.97
2019-03-24T18:33:03.269Z,68.70
2019-03-24T18:35:31.725Z,65.67
2019-03-24T18:38:00.178Z,60.93
2019-03-24T18:40:28.698Z,65.93
2019-03-24T18:42:57.249Z,65.40
2019-03-24T18:45:25.728Z,64.73
2019-03-24T18:47:54.204Z,57.70
2019-03-24T18:50:22.664Z,67.07
2019-03-24T18:52:51.144Z,73.97
2019-03-24T18:55:19.596Z,56.93
2019-03-24T18:57:48.013Z,66.03
2019-03-24T19:00:16.969Z,67.70
2019-03-24T19:02:45.405Z,65.60
2019-03-24T19:05:15.235Z,65.27
2019-03-24T19:07:43.666Z,60.23
2019-03-24T19:10:14.386Z,63.30
2019-03-24T19:12:42.994Z,64.47
2019-03-24T19:15:14.199Z,66.40
2019-03-24T19:17:42.654Z,70.23
2019-03-24T19:20:12.011Z,60.90
2019-03-24T19:22:40.802Z,64.67
2019-03-24T19:25:09.867Z,59.70
2019-03-24T19:27:38.370Z,65.20
2019-03-24T19:30:12.283Z,59.33
2019-03-24T19:32:40.736Z,64.13
2019-03-24T19:35:09.325Z,64.60
2019-03-24T19:37:37.901Z,65.67
2019-03-24T19:40:09.391Z,64.03
2019-03-24T19:42:37.869Z,62.13
2019-03-24T19:45:06.428Z,64.07
2019-03-24T19:47:35.156Z,66.40
2019-03-24T19:50:05.152Z,65.83
2019-03-24T19:52:44.102Z,65.80
2019-03-24T19:55:06.406Z,70.40
2019-03-24T19:57:34.826Z,65.83
2019-03-24T20:00:03.760Z,68.33
2019-03-24T20:02:32.243Z,65.50
2019-03-24T20:05:00.662Z,63.77
2019-03-24T20:07:29.102Z,63.60
2019-03-24T20:09:57.498Z,65.10
2019-03-24T20:12:25.934Z,66.73
2019-03-24T20:14:54.371Z,63.83
2019-03-24T20:17:22.901Z,68.23
2019-03-24T20:19:51.335Z,70.43
2019-03-24T20:22:19.775Z,73.30
2019-03-24T20:24:48.243Z,68.67
2019-03-24T20:27:16.698Z,63.77
2019-03-24T20:29:45.150Z,71.60
2019-03-24T20:32:13.573Z,73.03
2019-03-24T20:34:42.342Z,64.60
2019-03-24T20:37:13.431Z,66.50
2019-03-24T20:39:42.734Z,63.70
2019-03-24T20:42:11.204Z,76.60
2019-03-24T20:44:39.686Z,73.03
2019-03-24T20:47:08.129Z,67.53
2019-03-24T20:49:36.661Z,78.67
2019-03-24T20:52:05.181Z,66.67
2019-03-24T20:54:33.625Z,64.50
2019-03-24T20:57:02.106Z,69.43
2019-03-24T20:59:30.532Z,69.33
2019-03-24T21:01:58.994Z,70.60
2019-03-24T21:04:27.435Z,58.50
2019-03-24T21:06:55.952Z,66.73
2019-03-24T21:09:24.477Z,57.67
2019-03-24T21:11:52.942Z,71.67
2019-03-24T21:14:21.729Z,67.47
2019-03-24T21:16:50.177Z,70.70
2019-03-24T21:19:18.710Z,66.23
2019-03-24T21:21:47.162Z,68.47
2019-03-24T21:24:15.569Z,67.53
2019-03-24T21:26:43.997Z,63.47
2019-03-24T21:29:12.479Z,69.80
2019-03-24T21:31:40.889Z,71.97
2019-03-24T21:34:09.324Z,70.37
2019-03-24T21:36:37.762Z,72.70
2019-03-24T21:39:07.890Z,66.93
2019-03-24T21:41:36.419Z,63.63
2019-03-24T21:44:05.176Z,70.07
2019-03-24T21:46:33.592Z,70.00
2019-03-24T21:49:02.061Z,64.80
2019-03-24T21:51:30.595Z,67.80
2019-03-24T21:53:59.065Z,71.07
2019-03-24T21:56:27.499Z,69.17
2019-03-24T21:58:55.989Z,74.37
2019-03-24T22:01:24.401Z,69.70
2019-03-24T22:03:53.241Z,63.80
2019-03-24T22:06:21.645Z,64.77
2019-03-24T22:08:50.109Z,71.90
2019-03-24T22:11:18.794Z,66.97
2019-03-24T22:13:47.638Z,66.73
2019-03-24T22:16:16.213Z,70.93
2019-03-24T22:18:44.685Z,70.30
2019-03-24T22:21:13.102Z,68.67
2019-03-24T22:23:51.853Z,67.03
2019-03-24T22:26:12.698Z,69.43
2019-03-24T22:28:41.105Z,62.50
2019-03-24T22:31:09.550Z,70.53
2019-03-24T22:33:37.971Z,63.73
2019-03-24T22:36:06.789Z,69.90
2019-03-24T22:38:35.199Z,71.87
2019-03-24T22:41:03.685Z,73.87
2019-03-24T22:43:32.096Z,72.87
2019-03-24T22:46:00.569Z,74.13
2019-03-24T22:48:29.031Z,67.73
2019-03-24T22:50:57.470Z,74.70
2019-03-24T22:53:25.880Z,71.10
2019-03-24T22:55:54.390Z,68.77
2019-03-24T22:58:22.817Z,68.10
2019-03-24T23:00:54.262Z,75.30
2019-03-24T23:03:25.132Z,69.17
2019-03-24T23:05:53.356Z,70.27
2019-03-24T23:08:22.171Z,67.20
2019-03-24T23:10:50.685Z,69.60
2019-03-24T23:13:19.177Z,66.00
2019-03-24T23:15:47.615Z,66.77
2019-03-24T23:18:24.821Z,63.57
2019-03-24T23:20:53.253Z,62.70
2019-03-24T23:23:21.692Z,65.37
2019-03-24T23:25:50.209Z,65.80
2019-03-24T23:28:18.624Z,69.97
2019-03-24T23:30:47.168Z,61.33
2019-03-24T23:33:15.646Z,62.67
2019-03-24T23:35:44.106Z,61.63
2019-03-24T23:38:12.567Z,64.77
2019-03-24T23:40:41.009Z,64.53
2019-03-24T23:43:09.725Z,69.27
2019-03-24T23:45:38.177Z,63.03
2019-03-24T23:48:06.594Z,62.03
2019-03-24T23:50:35.114Z,70.73
2019-03-24T23:53:03.990Z,69.50
2019-03-24T23:55:32.535Z,69.23
2019-03-24T23:58:00.977Z,69.17
